sensor_id;sensor_type;location;lat;lon;timestamp;pressure;altitude;pressure_sealevel;temperature;humidity
49827;BME280;35715;51.570;6.036;2024-03-07T00:02:13;102410.34;;;7.42;98.48
49827;BME280;35715;51.570;6.036;2024-03-07T00:04:39;102412.28;;;7.36;98.62
49827;BME280;35715;51.570;6.036;2024-03-07T00:07:04;102412.44;;;7.38;98.57
49827;BME280;35715;51.570;6.036;2024-03-07T00:09:36;102415.41;;;7.34;98.40
49827;BME280;35715;51.570;6.036;2024-03-07T00:12:02;102419.41;;;7.23;99.63
49827;BME280;35715;51.570;6.036;2024-03-07T00:14:27;102430.38;;;7.13;100.00
49827;BME280;35715;51.570;6.036;2024-03-07T00:16:56;102425.31;;;7.06;100.00
49827;BME280;35715;51.570;6.036;2024-03-07T00:19:23;102427.81;;;6.97;100.00
49827;BME280;35715;51.570;6.036;2024-03-07T00:21:58;102422.00;;;6.91;100.00
49827;BME280;35715;51.570;6.036;2024-03-07T00:24:23;102416.97;;;6.84;100.00
49827;BME280;35715;51.570;6.036;2024-03-07T00:26:49;102428.56;;;6.80;100.00
49827;BME280;35715;51.570;6.036;2024-03-07T00:29:18;102422.75;;;6.74;100.00
49827;BME280;35715;51.570;6.036;2024-03-07T00:31:44;102425.34;;;6.74;100.00
49827;BME280;35715;51.570;6.036;2024-03-07T00:34:12;102420.44;;;6.68;100.00
49827;BME280;35715;51.570;6.036;2024-03-07T00:36:40;102424.34;;;6.65;100.00
49827;BME280;35715;51.570;6.036;2024-03-07T00:39:05;102424.50;;;6.66;100.00
49827;BME280;35715;51.570;6.036;2024-03-07T00:41:33;102421.78;;;6.65;100.00
49827;BME280;35715;51.570;6.036;2024-03-07T00:43:58;102418.78;;;6.69;100.00
49827;BME280;35715;51.570;6.036;2024-03-07T00:46:24;102423.16;;;6.70;100.00
49827;BME280;35715;51.570;6.036;2024-03-07T00:48:49;102421.78;;;6.65;100.00
49827;BME280;35715;51.570;6.036;2024-03-07T00:51:14;102417.78;;;6.60;100.00
49827;BME280;35715;51.570;6.036;2024-03-07T00:53:42;102419.28;;;6.57;100.00
49827;BME280;35715;51.570;6.036;2024-03-07T00:56:07;102412.16;;;6.55;100.00
49827;BME280;35715;51.570;6.036;2024-03-07T00:58:33;102408.91;;;6.49;100.00
49827;BME280;35715;51.570;6.036;2024-03-07T01:00:59;102404.19;;;6.45;100.00
49827;BME280;35715;51.570;6.036;2024-03-07T01:03:25;102405.84;;;6.44;100.00
49827;BME280;35715;51.570;6.036;2024-03-07T01:05:55;102403.34;;;6.37;100.00
49827;BME280;35715;51.570;6.036;2024-03-07T01:08:20;102408.16;;;6.34;100.00
49827;BME280;35715;51.570;6.036;2024-03-07T01:10:45;102411.88;;;6.29;100.00
49827;BME280;35715;51.570;6.036;2024-03-07T01:13:11;102404.25;;;6.21;100.00
49827;BME280;35715;51.570;6.036;2024-03-07T01:15:47;102403.66;;;6.24;100.00
49827;BME280;35715;51.570;6.036;2024-03-07T01:18:14;102399.94;;;6.29;100.00
49827;BME280;35715;51.570;6.036;2024-03-07T01:20:39;102394.09;;;6.30;100.00
49827;BME280;35715;51.570;6.036;2024-03-07T01:23:04;102399.78;;;6.28;100.00
49827;BME280;35715;51.570;6.036;2024-03-07T01:25:32;102396.50;;;6.29;100.00
49827;BME280;35715;51.570;6.036;2024-03-07T01:27:59;102384.34;;;6.35;100.00
49827;BME280;35715;51.570;6.036;2024-03-07T01:30:25;102389.81;;;6.38;100.00
49827;BME280;35715;51.570;6.036;2024-03-07T01:32:53;102382.44;;;6.41;100.00
49827;BME280;35715;51.570;6.036;2024-03-07T01:35:18;102391.38;;;6.45;100.00
49827;BME280;35715;51.570;6.036;2024-03-07T01:37:44;102389.91;;;6.47;100.00
49827;BME280;35715;51.570;6.036;2024-03-07T01:40:09;102389.91;;;6.47;100.00
49827;BME280;35715;51.570;6.036;2024-03-07T01:42:36;102387.50;;;6.48;100.00
49827;BME280;35715;51.570;6.036;2024-03-07T01:45:01;102392.63;;;6.48;100.00
49827;BME280;35715;51.570;6.036;2024-03-07T01:47:30;102388.25;;;6.47;100.00
49827;BME280;35715;51.570;6.036;2024-03-07T01:49:55;102387.00;;;6.44;100.00
49827;BME280;35715;51.570;6.036;2024-03-07T01:52:21;102378.22;;;6.42;100.00
49827;BME280;35715;51.570;6.036;2024-03-07T01:54:48;102390.88;;;6.40;100.00
49827;BME280;35715;51.570;6.036;2024-03-07T01:57:14;102384.16;;;6.33;100.00
49827;BME280;35715;51.570;6.036;2024-03-07T01:59:41;102376.88;;;6.29;100.00
49827;BME280;35715;51.570;6.036;2024-03-07T02:02:07;102378.53;;;6.29;100.00
49827;BME280;35715;51.570;6.036;2024-03-07T02:04:32;102374.72;;;6.25;100.00
49827;BME280;35715;51.570;6.036;2024-03-07T02:06:58;102377.94;;;6.15;100.00
49827;BME280;35715;51.570;6.036;2024-03-07T02:09:23;102377.44;;;6.11;100.00
49827;BME280;35715;51.570;6.036;2024-03-07T02:11:51;102373.19;;;6.11;100.00
49827;BME280;35715;51.570;6.036;2024-03-07T02:14:17;102366.50;;;6.04;100.00
49827;BME280;35715;51.570;6.036;2024-03-07T02:16:42;102362.69;;;6.01;100.00
49827;BME280;35715;51.570;6.036;2024-03-07T02:19:12;102364.91;;;5.98;100.00
49827;BME280;35715;51.570;6.036;2024-03-07T02:21:38;102371.19;;;5.85;100.00
49827;BME280;35715;51.570;6.036;2024-03-07T02:24:05;102370.13;;;5.83;100.00
49827;BME280;35715;51.570;6.036;2024-03-07T02:26:31;102367.06;;;5.79;100.00
49827;BME280;35715;51.570;6.036;2024-03-07T02:28:56;102363.22;;;5.75;100.00
49827;BME280;35715;51.570;6.036;2024-03-07T02:31:22;102364.19;;;5.68;100.00
49827;BME280;35715;51.570;6.036;2024-03-07T02:34:01;102360.16;;;5.71;100.00
49827;BME280;35715;51.570;6.036;2024-03-07T02:36:27;102350.06;;;5.72;100.00
49827;BME280;35715;51.570;6.036;2024-03-07T02:39:01;102353.97;;;5.68;100.00
49827;BME280;35715;51.570;6.036;2024-03-07T02:41:27;102353.44;;;5.64;100.00
49827;BME280;35715;51.570;6.036;2024-03-07T02:43:52;102349.31;;;5.57;100.00
49827;BME280;35715;51.570;6.036;2024-03-07T02:46:18;102355.53;;;5.52;100.00
49827;BME280;35715;51.570;6.036;2024-03-07T02:48:45;102350.47;;;5.45;100.00
49827;BME280;35715;51.570;6.036;2024-03-07T02:51:11;102348.50;;;5.42;100.00
49827;BME280;35715;51.570;6.036;2024-03-07T02:53:37;102356.91;;;5.41;100.00
49827;BME280;35715;51.570;6.036;2024-03-07T02:56:04;102346.50;;;5.40;100.00
49827;BME280;35715;51.570;6.036;2024-03-07T02:58:33;102344.13;;;5.34;100.00
49827;BME280;35715;51.570;6.036;2024-03-07T03:00:59;102344.50;;;5.37;100.00
49827;BME280;35715;51.570;6.036;2024-03-07T03:03:26;102346.69;;;5.34;100.00
49827;BME280;35715;51.570;6.036;2024-03-07T03:05:51;102347.47;;;5.33;100.00
49827;BME280;35715;51.570;6.036;2024-03-07T03:08:16;102342.56;;;5.27;100.00
49827;BME280;35715;51.570;6.036;2024-03-07T03:10:44;102344.94;;;5.26;100.00
49827;BME280;35715;51.570;6.036;2024-03-07T03:13:09;102335.94;;;5.29;100.00
49827;BME280;35715;51.570;6.036;2024-03-07T03:15:35;102334.16;;;5.28;100.00
49827;BME280;35715;51.570;6.036;2024-03-07T03:18:03;102328.84;;;5.27;100.00
49827;BME280;35715;51.570;6.036;2024-03-07T03:20:29;102329.19;;;5.30;100.00
49827;BME280;35715;51.570;6.036;2024-03-07T03:22:59;102336.88;;;5.30;100.00
49827;BME280;35715;51.570;6.036;2024-03-07T03:25:24;102325.53;;;5.28;100.00
49827;BME280;35715;51.570;6.036;2024-03-07T03:27:50;102331.94;;;5.31;100.00
49827;BME280;35715;51.570;6.036;2024-03-07T03:30:15;102335.06;;;5.29;100.00
49827;BME280;35715;51.570;6.036;2024-03-07T03:32:46;102328.47;;;5.24;100.00
49827;BME280;35715;51.570;6.036;2024-03-07T03:35:11;102330.13;;;5.23;100.00
49827;BME280;35715;51.570;6.036;2024-03-07T03:37:47;102332.16;;;5.26;100.00
49827;BME280;35715;51.570;6.036;2024-03-07T03:40:13;102325.03;;;5.23;100.00
49827;BME280;35715;51.570;6.036;2024-03-07T03:42:39;102318.31;;;5.17;100.00
49827;BME280;35715;51.570;6.036;2024-03-07T03:45:06;102325.06;;;5.16;100.00
49827;BME280;35715;51.570;6.036;2024-03-07T03:47:37;102318.88;;;5.14;100.00
49827;BME280;35715;51.570;6.036;2024-03-07T03:50:06;102320.19;;;5.10;100.00
49827;BME280;35715;51.570;6.036;2024-03-07T03:52:32;102312.88;;;5.06;100.00
49827;BME280;35715;51.570;6.036;2024-03-07T03:55:00;102326.41;;;5.05;100.00
49827;BME280;35715;51.570;6.036;2024-03-07T03:57:31;102318.22;;;5.01;100.00
49827;BME280;35715;51.570;6.036;2024-03-07T03:59:57;102322.06;;;5.04;100.00
49827;BME280;35715;51.570;6.036;2024-03-07T04:02:23;102320.94;;;5.02;100.00
49827;BME280;35715;51.570;6.036;2024-03-07T04:04:50;102318.75;;;4.98;100.00
49827;BME280;35715;51.570;6.036;2024-03-07T04:07:17;102316.22;;;4.98;100.00
49827;BME280;35715;51.570;6.036;2024-03-07T04:09:43;102312.94;;;4.99;100.00
49827;BME280;35715;51.570;6.036;2024-03-07T04:12:09;102322.09;;;4.97;100.00
49827;BME280;35715;51.570;6.036;2024-03-07T04:14:39;102317.69;;;4.96;100.00
49827;BME280;35715;51.570;6.036;2024-03-07T04:17:08;102320.97;;;4.95;100.00
49827;BME280;35715;51.570;6.036;2024-03-07T04:19:40;102315.13;;;4.96;100.00
49827;BME280;35715;51.570;6.036;2024-03-07T04:22:05;102312.56;;;4.96;100.00
49827;BME280;35715;51.570;6.036;2024-03-07T04:24:31;102310.91;;;4.96;100.00
49827;BME280;35715;51.570;6.036;2024-03-07T04:27:02;102306.91;;;4.98;100.00
49827;BME280;35715;51.570;6.036;2024-03-07T04:29:36;102304.38;;;4.91;100.00
49827;BME280;35715;51.570;6.036;2024-03-07T04:32:05;102314.63;;;4.91;100.00
49827;BME280;35715;51.570;6.036;2024-03-07T04:34:31;102310.81;;;4.88;100.00
49827;BME280;35715;51.570;6.036;2024-03-07T04:36:57;102306.97;;;4.84;100.00
49827;BME280;35715;51.570;6.036;2024-03-07T04:39:24;102314.28;;;4.81;100.00
49827;BME280;35715;51.570;6.036;2024-03-07T04:42:05;102314.13;;;4.79;100.00
49827;BME280;35715;51.570;6.036;2024-03-07T04:44:37;102307.75;;;4.76;100.00
49827;BME280;35715;51.570;6.036;2024-03-07T04:47:03;102317.97;;;4.76;100.00
49827;BME280;35715;51.570;6.036;2024-03-07T04:49:30;102305.75;;;4.73;100.00
49827;BME280;35715;51.570;6.036;2024-03-07T04:51:57;102317.47;;;4.71;100.00
49827;BME280;35715;51.570;6.036;2024-03-07T04:54:27;102307.94;;;4.70;100.00
49827;BME280;35715;51.570;6.036;2024-03-07T04:56:53;102309.44;;;4.68;100.00
49827;BME280;35715;51.570;6.036;2024-03-07T04:59:19;102307.44;;;4.66;100.00
49827;BME280;35715;51.570;6.036;2024-03-07T05:01:49;102309.97;;;4.66;100.00
49827;BME280;35715;51.570;6.036;2024-03-07T05:04:18;102312.38;;;4.64;100.00
49827;BME280;35715;51.570;6.036;2024-03-07T05:06:43;102310.88;;;4.66;100.00
49827;BME280;35715;51.570;6.036;2024-03-07T05:09:10;102309.47;;;4.61;100.00
49827;BME280;35715;51.570;6.036;2024-03-07T05:11:48;102310.75;;;4.57;100.00
49827;BME280;35715;51.570;6.036;2024-03-07T05:14:13;102312.38;;;4.57;100.00
49827;BME280;35715;51.570;6.036;2024-03-07T05:16:39;102311.31;;;4.55;100.00
49827;BME280;35715;51.570;6.036;2024-03-07T05:19:04;102310.59;;;4.49;100.00
49827;BME280;35715;51.570;6.036;2024-03-07T05:21:30;102310.97;;;4.44;100.00
49827;BME280;35715;51.570;6.036;2024-03-07T05:24:03;102309.91;;;4.42;100.00
49827;BME280;35715;51.570;6.036;2024-03-07T05:26:29;102309.91;;;4.42;100.00
49827;BME280;35715;51.570;6.036;2024-03-07T05:29:08;102303.50;;;4.39;100.00
49827;BME280;35715;51.570;6.036;2024-03-07T05:31:35;102306.81;;;4.38;100.00
49827;BME280;35715;51.570;6.036;2024-03-07T05:34:04;102316.09;;;4.37;100.00
49827;BME280;35715;51.570;6.036;2024-03-07T05:36:36;102308.44;;;4.37;100.00
49827;BME280;35715;51.570;6.036;2024-03-07T05:39:09;102314.31;;;4.36;100.00
49827;BME280;35715;51.570;6.036;2024-03-07T05:41:40;102307.72;;;4.31;100.00
49827;BME280;35715;51.570;6.036;2024-03-07T05:44:06;102306.81;;;4.31;100.00
49827;BME280;35715;51.570;6.036;2024-03-07T05:46:38;102306.47;;;4.28;100.00
49827;BME280;35715;51.570;6.036;2024-03-07T05:49:08;102302.66;;;4.24;100.00
49827;BME280;35715;51.570;6.036;2024-03-07T05:51:33;102313.44;;;4.21;100.00
49827;BME280;35715;51.570;6.036;2024-03-07T05:53:58;102311.78;;;4.22;100.00
49827;BME280;35715;51.570;6.036;2024-03-07T05:56:24;102313.25;;;4.20;100.00
49827;BME280;35715;51.570;6.036;2024-03-07T05:58:49;102312.50;;;4.21;100.00
49827;BME280;35715;51.570;6.036;2024-03-07T06:01:16;102306.84;;;4.23;100.00
49827;BME280;35715;51.570;6.036;2024-03-07T06:03:43;102309.94;;;4.21;100.00
49827;BME280;35715;51.570;6.036;2024-03-07T06:06:08;102317.25;;;4.18;100.00
49827;BME280;35715;51.570;6.036;2024-03-07T06:08:37;102319.78;;;4.25;100.00
49827;BME280;35715;51.570;6.036;2024-03-07T06:11:03;102315.25;;;4.22;100.00
49827;BME280;35715;51.570;6.036;2024-03-07T06:13:28;102305.94;;;4.23;100.00
49827;BME280;35715;51.570;6.036;2024-03-07T06:15:53;102307.59;;;4.22;100.00
49827;BME280;35715;51.570;6.036;2024-03-07T06:18:19;102305.41;;;4.25;100.00
49827;BME280;35715;51.570;6.036;2024-03-07T06:20:44;102309.03;;;4.28;100.00
49827;BME280;35715;51.570;6.036;2024-03-07T06:23:10;102307.19;;;4.26;100.00
49827;BME280;35715;51.570;6.036;2024-03-07T06:25:37;102296.97;;;4.26;100.00
49827;BME280;35715;51.570;6.036;2024-03-07T06:28:13;102300.63;;;4.29;100.00
49827;BME280;35715;51.570;6.036;2024-03-07T06:30:40;102304.28;;;4.31;100.00
49827;BME280;35715;51.570;6.036;2024-03-07T06:33:06;102306.81;;;4.31;100.00
49827;BME280;35715;51.570;6.036;2024-03-07T06:35:32;102305.53;;;4.34;100.00
49827;BME280;35715;51.570;6.036;2024-03-07T06:38:02;102311.00;;;4.37;100.00
49827;BME280;35715;51.570;6.036;2024-03-07T06:40:28;102304.06;;;4.36;100.00
49827;BME280;35715;51.570;6.036;2024-03-07T06:42:53;102304.97;;;4.37;100.00
49827;BME280;35715;51.570;6.036;2024-03-07T06:45:19;102302.06;;;4.41;100.00
49827;BME280;35715;51.570;6.036;2024-03-07T06:47:44;102301.13;;;4.40;100.00
49827;BME280;35715;51.570;6.036;2024-03-07T06:50:09;102300.22;;;4.47;100.00
49827;BME280;35715;51.570;6.036;2024-03-07T06:52:39;102299.47;;;4.48;100.00
49827;BME280;35715;51.570;6.036;2024-03-07T06:55:05;102303.84;;;4.49;100.00
49827;BME280;35715;51.570;6.036;2024-03-07T06:57:33;102304.00;;;4.51;100.00
49827;BME280;35715;51.570;6.036;2024-03-07T07:00:02;102305.84;;;4.52;100.00
49827;BME280;35715;51.570;6.036;2024-03-07T07:02:37;102307.31;;;4.50;100.00
49827;BME280;35715;51.570;6.036;2024-03-07T07:05:02;102304.78;;;4.50;100.00
49827;BME280;35715;51.570;6.036;2024-03-07T07:07:32;102306.91;;;4.54;100.00
49827;BME280;35715;51.570;6.036;2024-03-07T07:09:58;102313.88;;;4.55;100.00
49827;BME280;35715;51.570;6.036;2024-03-07T07:12:23;102306.72;;;4.59;100.00
49827;BME280;35715;51.570;6.036;2024-03-07T07:14:49;102307.25;;;4.64;100.00
49827;BME280;35715;51.570;6.036;2024-03-07T07:17:14;102304.69;;;4.64;100.00
49827;BME280;35715;51.570;6.036;2024-03-07T07:19:39;102298.81;;;4.72;100.00
49827;BME280;35715;51.570;6.036;2024-03-07T07:22:05;102302.28;;;4.73;100.00
49827;BME280;35715;51.570;6.036;2024-03-07T07:24:31;102298.59;;;4.78;100.00
49827;BME280;35715;51.570;6.036;2024-03-07T07:26:59;102307.38;;;4.80;100.00
49827;BME280;35715;51.570;6.036;2024-03-07T07:29:26;102302.78;;;4.85;100.00
49827;BME280;35715;51.570;6.036;2024-03-07T07:31:54;102297.44;;;4.90;100.00
49827;BME280;35715;51.570;6.036;2024-03-07T07:34:20;102295.00;;;4.99;100.00
49827;BME280;35715;51.570;6.036;2024-03-07T07:36:45;102299.03;;;5.04;100.00
49827;BME280;35715;51.570;6.036;2024-03-07T07:39:11;102293.31;;;5.07;100.00
49827;BME280;35715;51.570;6.036;2024-03-07T07:41:42;102288.72;;;5.11;100.00
49827;BME280;35715;51.570;6.036;2024-03-07T07:44:07;102286.84;;;5.18;100.00
49827;BME280;35715;51.570;6.036;2024-03-07T07:46:33;102290.28;;;5.25;100.00
49827;BME280;35715;51.570;6.036;2024-03-07T07:49:04;102290.81;;;5.30;100.00
49827;BME280;35715;51.570;6.036;2024-03-07T07:51:29;102287.06;;;5.42;100.00
49827;BME280;35715;51.570;6.036;2024-03-07T07:53:55;102284.31;;;5.64;100.00
49827;BME280;35715;51.570;6.036;2024-03-07T07:56:22;102281.44;;;6.16;98.86
49827;BME280;35715;51.570;6.036;2024-03-07T07:58:48;102277.69;;;6.85;95.88
49827;BME280;35715;51.570;6.036;2024-03-07T08:01:16;102282.38;;;7.38;91.64
49827;BME280;35715;51.570;6.036;2024-03-07T08:03:43;102284.94;;;7.72;89.20
49827;BME280;35715;51.570;6.036;2024-03-07T08:06:12;102281.44;;;8.13;87.50
49827;BME280;35715;51.570;6.036;2024-03-07T08:08:37;102292.25;;;8.53;85.58
49827;BME280;35715;51.570;6.036;2024-03-07T08:11:03;102299.22;;;8.80;83.39
49827;BME280;35715;51.570;6.036;2024-03-07T08:13:28;102287.47;;;9.19;81.70
49827;BME280;35715;51.570;6.036;2024-03-07T08:15:54;102287.25;;;9.52;80.59
49827;BME280;35715;51.570;6.036;2024-03-07T08:18:22;102285.06;;;9.66;78.24
49827;BME280;35715;51.570;6.036;2024-03-07T08:20:47;102285.28;;;9.86;76.70
49827;BME280;35715;51.570;6.036;2024-03-07T08:23:15;102285.50;;;10.26;76.85
49827;BME280;35715;51.570;6.036;2024-03-07T08:25:41;102286.69;;;10.29;74.11
49827;BME280;35715;51.570;6.036;2024-03-07T08:28:07;102288.38;;;10.67;72.97
49827;BME280;35715;51.570;6.036;2024-03-07T08:30:32;102282.47;;;10.87;71.31
49827;BME280;35715;51.570;6.036;2024-03-07T08:32:58;102289.44;;;11.17;70.64
49827;BME280;35715;51.570;6.036;2024-03-07T08:35:27;102282.69;;;11.39;68.92
49827;BME280;35715;51.570;6.036;2024-03-07T08:37:54;102289.69;;;11.50;67.36
49827;BME280;35715;51.570;6.036;2024-03-07T08:40:26;102283.91;;;11.83;66.46
49827;BME280;35715;51.570;6.036;2024-03-07T08:42:53;102278.22;;;11.77;65.60
49827;BME280;35715;51.570;6.036;2024-03-07T08:45:19;102277.41;;;11.58;63.32
49827;BME280;35715;51.570;6.036;2024-03-07T08:47:46;102273.28;;;11.20;64.10
49827;BME280;35715;51.570;6.036;2024-03-07T08:50:13;102276.53;;;11.17;63.79
49827;BME280;35715;51.570;6.036;2024-03-07T08:52:39;102274.94;;;11.09;64.07
49827;BME280;35715;51.570;6.036;2024-03-07T08:55:08;102258.53;;;11.09;64.41
49827;BME280;35715;51.570;6.036;2024-03-07T08:57:37;102284.53;;;11.21;64.26
49827;BME280;35715;51.570;6.036;2024-03-07T09:00:06;102274.53;;;11.34;64.88
49827;BME280;35715;51.570;6.036;2024-03-07T09:02:38;102263.72;;;11.59;63.61
49827;BME280;35715;51.570;6.036;2024-03-07T09:05:05;102263.31;;;11.54;62.81
49827;BME280;35715;51.570;6.036;2024-03-07T09:07:31;102262.34;;;11.83;63.08
49827;BME280;35715;51.570;6.036;2024-03-07T09:09:57;102261.94;;;11.78;60.64
49827;BME280;35715;51.570;6.036;2024-03-07T09:12:23;102257.28;;;11.74;60.30
49827;BME280;35715;51.570;6.036;2024-03-07T09:14:50;102248.31;;;11.50;61.21
49827;BME280;35715;51.570;6.036;2024-03-07T09:17:20;102254.88;;;11.96;59.92
49827;BME280;35715;51.570;6.036;2024-03-07T09:19:48;102261.88;;;11.37;60.27
49827;BME280;35715;51.570;6.036;2024-03-07T09:22:13;102256.13;;;11.31;60.76
49827;BME280;35715;51.570;6.036;2024-03-07T09:24:39;102252.66;;;11.90;59.82
49827;BME280;35715;51.570;6.036;2024-03-07T09:27:07;102262.25;;;12.02;58.10
49827;BME280;35715;51.570;6.036;2024-03-07T09:29:33;102264.31;;;12.27;58.16
49827;BME280;35715;51.570;6.036;2024-03-07T09:31:58;102252.94;;;12.04;58.44
49827;BME280;35715;51.570;6.036;2024-03-07T09:34:24;102257.28;;;11.84;59.61
49827;BME280;35715;51.570;6.036;2024-03-07T09:36:50;102249.41;;;11.23;60.35
49827;BME280;35715;51.570;6.036;2024-03-07T09:39:19;102238.59;;;11.47;59.01
49827;BME280;35715;51.570;6.036;2024-03-07T09:41:50;102236.94;;;11.58;58.39
49827;BME280;35715;51.570;6.036;2024-03-07T09:44:29;102249.47;;;11.43;60.01
49827;BME280;35715;51.570;6.036;2024-03-07T09:46:55;102244.84;;;11.70;59.33
49827;BME280;35715;51.570;6.036;2024-03-07T09:49:28;102242.53;;;11.73;57.42
49827;BME280;35715;51.570;6.036;2024-03-07T09:51:55;102257.78;;;11.70;57.80
49827;BME280;35715;51.570;6.036;2024-03-07T09:54:22;102241.41;;;11.90;58.36
49827;BME280;35715;51.570;6.036;2024-03-07T09:56:54;102240.00;;;12.14;57.21
49827;BME280;35715;51.570;6.036;2024-03-07T09:59:24;102249.53;;;11.84;55.75
49827;BME280;35715;51.570;6.036;2024-03-07T10:01:54;102238.78;;;11.69;56.65
49827;BME280;35715;51.570;6.036;2024-03-07T10:07:01;102245.69;;;12.00;54.38
49827;BME280;35715;51.570;6.036;2024-03-07T10:09:28;102236.03;;;12.60;55.02
49827;BME280;35715;51.570;6.036;2024-03-07T10:11:59;102233.38;;;12.91;52.34
49827;BME280;35715;51.570;6.036;2024-03-07T10:14:24;102228.78;;;13.21;51.70
49827;BME280;35715;51.570;6.036;2024-03-07T10:16:53;102233.09;;;13.65;51.58
49827;BME280;35715;51.570;6.036;2024-03-07T10:19:18;102220.59;;;14.05;50.31
49827;BME280;35715;51.570;6.036;2024-03-07T10:21:44;102225.50;;;14.48;48.38
49827;BME280;35715;51.570;6.036;2024-03-07T10:24:09;102211.84;;;14.98;47.68
49827;BME280;35715;51.570;6.036;2024-03-07T10:26:37;102207.03;;;15.16;45.83
49827;BME280;35715;51.570;6.036;2024-03-07T10:29:04;102215.44;;;15.62;45.53
49827;BME280;35715;51.570;6.036;2024-03-07T10:31:33;102205.75;;;15.59;43.45
49827;BME280;35715;51.570;6.036;2024-03-07T10:34:01;102201.44;;;14.98;44.41
49827;BME280;35715;51.570;6.036;2024-03-07T10:36:28;102203.91;;;15.08;45.89
49827;BME280;35715;51.570;6.036;2024-03-07T10:38:57;102202.84;;;15.18;45.20
49827;BME280;35715;51.570;6.036;2024-03-07T10:41:44;102193.69;;;16.12;43.19
49827;BME280;35715;51.570;6.036;2024-03-07T10:44:11;102195.44;;;15.86;42.49
49827;BME280;35715;51.570;6.036;2024-03-07T10:46:46;102192.44;;;15.68;43.85
49827;BME280;35715;51.570;6.036;2024-03-07T10:49:15;102187.47;;;14.84;44.41
49827;BME280;35715;51.570;6.036;2024-03-07T10:51:45;102185.81;;;13.79;47.18
49827;BME280;35715;51.570;6.036;2024-03-07T10:59:41;102188.09;;;11.51;54.92
49827;BME280;35715;51.570;6.036;2024-03-07T11:04:46;102189.81;;;11.11;57.33
49827;BME280;35715;51.570;6.036;2024-03-07T11:07:12;102185.91;;;10.95;56.92
49827;BME280;35715;51.570;6.036;2024-03-07T11:09:39;102183.97;;;10.63;58.77
49827;BME280;35715;51.570;6.036;2024-03-07T11:12:07;102188.31;;;10.54;58.83
49827;BME280;35715;51.570;6.036;2024-03-07T11:14:36;102176.84;;;10.61;59.19
49827;BME280;35715;51.570;6.036;2024-03-07T11:17:02;102184.59;;;10.61;60.28
49827;BME280;35715;51.570;6.036;2024-03-07T11:19:31;102185.38;;;11.70;59.77
49827;BME280;35715;51.570;6.036;2024-03-07T11:22:02;102176.75;;;12.96;55.38
49827;BME280;35715;51.570;6.036;2024-03-07T11:24:29;102171.22;;;12.81;54.14
49827;BME280;35715;51.570;6.036;2024-03-07T11:26:57;102177.63;;;12.96;52.64
49827;BME280;35715;51.570;6.036;2024-03-07T11:29:41;102171.25;;;12.38;53.63
49827;BME280;35715;51.570;6.036;2024-03-07T11:32:13;102174.97;;;11.99;54.22
49827;BME280;35715;51.570;6.036;2024-03-07T11:34:41;102159.69;;;12.55;53.71
49827;BME280;35715;51.570;6.036;2024-03-07T11:37:07;102161.72;;;13.14;52.64
49827;BME280;35715;51.570;6.036;2024-03-07T11:39:42;102152.66;;;13.99;50.82
49827;BME280;35715;51.570;6.036;2024-03-07T11:42:09;102149.75;;;14.53;48.99
49827;BME280;35715;51.570;6.036;2024-03-07T11:44:34;102155.81;;;14.54;48.31
49827;BME280;35715;51.570;6.036;2024-03-07T11:47:03;102148.47;;;15.46;47.28
49827;BME280;35715;51.570;6.036;2024-03-07T11:49:37;102134.31;;;15.93;46.39
49827;BME280;35715;51.570;6.036;2024-03-07T11:52:06;102129.41;;;16.11;44.67
49827;BME280;35715;51.570;6.036;2024-03-07T11:54:42;102134.63;;;16.11;44.31
49827;BME280;35715;51.570;6.036;2024-03-07T11:57:12;102137.81;;;15.30;45.27
49827;BME280;35715;51.570;6.036;2024-03-07T11:59:40;102138.59;;;15.03;45.99
49827;BME280;35715;51.570;6.036;2024-03-07T12:02:11;102129.31;;;15.32;45.16
49827;BME280;35715;51.570;6.036;2024-03-07T12:04:36;102129.69;;;15.64;44.52
49827;BME280;35715;51.570;6.036;2024-03-07T12:07:01;102134.06;;;15.51;44.70
49827;BME280;35715;51.570;6.036;2024-03-07T12:09:31;102117.72;;;15.66;44.82
49827;BME280;35715;51.570;6.036;2024-03-07T12:11:56;102116.59;;;15.62;44.84
49827;BME280;35715;51.570;6.036;2024-03-07T12:14:24;102109.88;;;15.52;45.17
49827;BME280;35715;51.570;6.036;2024-03-07T12:16:49;102113.50;;;15.68;45.45
49827;BME280;35715;51.570;6.036;2024-03-07T12:19:17;102108.50;;;15.32;45.63
49827;BME280;35715;51.570;6.036;2024-03-07T12:21:46;102106.75;;;15.44;44.93
49827;BME280;35715;51.570;6.036;2024-03-07T12:24:12;102095.00;;;15.38;45.04
49827;BME280;35715;51.570;6.036;2024-03-07T12:26:38;102095.66;;;14.97;45.72
49827;BME280;35715;51.570;6.036;2024-03-07T12:29:08;102096.59;;;14.13;47.27
49827;BME280;35715;51.570;6.036;2024-03-07T12:31:40;102101.09;;;13.12;49.66
49827;BME280;35715;51.570;6.036;2024-03-07T12:34:05;102081.56;;;13.97;49.17
49827;BME280;35715;51.570;6.036;2024-03-07T12:36:34;102079.53;;;13.23;49.95
49827;BME280;35715;51.570;6.036;2024-03-07T12:39:21;102077.72;;;13.00;50.79
49827;BME280;35715;51.570;6.036;2024-03-07T12:41:50;102070.41;;;13.28;50.63
49827;BME280;35715;51.570;6.036;2024-03-07T12:44:19;102078.44;;;13.09;51.70
49827;BME280;35715;51.570;6.036;2024-03-07T12:47:04;102068.00;;;13.20;51.57
49827;BME280;35715;51.570;6.036;2024-03-07T12:49:29;102074.81;;;13.07;52.62
49827;BME280;35715;51.570;6.036;2024-03-07T12:51:55;102060.56;;;12.90;53.83
49827;BME280;35715;51.570;6.036;2024-03-07T12:54:22;102056.94;;;13.10;54.12
49827;BME280;35715;51.570;6.036;2024-03-07T12:56:47;102059.03;;;12.70;54.57
49827;BME280;35715;51.570;6.036;2024-03-07T12:59:15;102056.47;;;12.38;55.69
49827;BME280;35715;51.570;6.036;2024-03-07T13:01:40;102054.19;;;12.53;55.11
49827;BME280;35715;51.570;6.036;2024-03-07T13:04:13;102049.09;;;12.65;55.73